sensor_id;sensor_type;location;lat;lon;timestamp;pressure;altitude;pressure_sealevel;temperature;humidity
51195;BME280;37259;49.972;19.850;2022-12-16T00:00:46;98090;;;-2.1;89.1
51195;BME280;37259;49.972;19.850;2022-12-16T00:01:45;98090;;;-2.1;89.1
51195;BME280;37259;49.972;19.850;2022-12-16T00:02:46;98080;;;-2;89.1
51195;BME280;37259;49.972;19.850;2022-12-16T00:03:46;98080;;;-2;89.1
51195;BME280;37259;49.972;19.850;2022-12-16T00:04:46;98080;;;-2;89.1
51195;BME280;37259;49.972;19.850;2022-12-16T00:05:47;98080;;;-2;89.1
51195;BME280;37259;49.972;19.850;2022-12-16T00:06:45;98090;;;-2.1;89
51195;BME280;37259;49.972;19.850;2022-12-16T00:07:46;98090;;;-2.1;89
51195;BME280;37259;49.972;19.850;2022-12-16T00:08:46;98090;;;-2.1;89
51195;BME280;37259;49.972;19.850;2022-12-16T00:09:45;98090;;;-2.1;89.1
51195;BME280;37259;49.972;19.850;2022-12-16T00:10:45;98090;;;-2.1;89.1
51195;BME280;37259;49.972;19.850;2022-12-16T00:11:46;98090;;;-2.1;89.1
51195;BME280;37259;49.972;19.850;2022-12-16T00:12:45;98090;;;-2.1;89.2
51195;BME280;37259;49.972;19.850;2022-12-16T00:13:46;98100;;;-2.1;89.2
51195;BME280;37259;49.972;19.850;2022-12-16T00:14:45;98100;;;-2.1;89.2
51195;BME280;37259;49.972;19.850;2022-12-16T00:15:45;98100;;;-2.1;89.2
51195;BME280;37259;49.972;19.850;2022-12-16T00:16:46;98100;;;-2.1;89.2
51195;BME280;37259;49.972;19.850;2022-12-16T00:17:45;98100;;;-2.1;89.2
51195;BME280;37259;49.972;19.850;2022-12-16T00:18:46;98100;;;-2.1;89.2
51195;BME280;37259;49.972;19.850;2022-12-16T00:19:45;98110;;;-2.1;89.2
51195;BME280;37259;49.972;19.850;2022-12-16T00:20:46;98100;;;-2.1;89.2
51195;BME280;37259;49.972;19.850;2022-12-16T00:21:46;98110;;;-2.1;89.2
51195;BME280;37259;49.972;19.850;2022-12-16T00:22:46;98110;;;-2.1;89.2
51195;BME280;37259;49.972;19.850;2022-12-16T00:23:46;98110;;;-2.1;89.2
51195;BME280;37259;49.972;19.850;2022-12-16T00:24:45;98110;;;-2.1;89.2
51195;BME280;37259;49.972;19.850;2022-12-16T00:25:46;98110;;;-2.1;89.2
51195;BME280;37259;49.972;19.850;2022-12-16T00:26:46;98110;;;-2.1;89.2
51195;BME280;37259;49.972;19.850;2022-12-16T00:27:46;98100;;;-2.1;89.2
51195;BME280;37259;49.972;19.850;2022-12-16T00:28:45;98100;;;-2.1;89.2
51195;BME280;37259;49.972;19.850;2022-12-16T00:29:45;98100;;;-2;89.2
51195;BME280;37259;49.972;19.850;2022-12-16T00:30:46;98100;;;-2;89.2
51195;BME280;37259;49.972;19.850;2022-12-16T00:31:45;98090;;;-2.1;89.2
51195;BME280;37259;49.972;19.850;2022-12-16T00:32:45;98090;;;-2.1;89.2
51195;BME280;37259;49.972;19.850;2022-12-16T00:33:46;98080;;;-2.1;89.1
51195;BME280;37259;49.972;19.850;2022-12-16T00:34:45;98080;;;-2.1;89.1
51195;BME280;37259;49.972;19.850;2022-12-16T00:35:46;98080;;;-2.1;89.2
51195;BME280;37259;49.972;19.850;2022-12-16T00:36:46;98080;;;-2.1;89.2
51195;BME280;37259;49.972;19.850;2022-12-16T00:37:46;98080;;;-2.1;89.2
51195;BME280;37259;49.972;19.850;2022-12-16T00:38:45;98080;;;-2.1;89.2
51195;BME280;37259;49.972;19.850;2022-12-16T00:39:46;98080;;;-2.1;89.2
51195;BME280;37259;49.972;19.850;2022-12-16T00:40:46;98080;;;-2.2;89.3
51195;BME280;37259;49.972;19.850;2022-12-16T00:41:45;98080;;;-2.1;89.4
51195;BME280;37259;49.972;19.850;2022-12-16T00:42:45;98080;;;-2.1;89.4
51195;BME280;37259;49.972;19.850;2022-12-16T00:43:46;98080;;;-2.1;89.4
51195;BME280;37259;49.972;19.850;2022-12-16T00:44:46;98080;;;-2.1;89.3
51195;BME280;37259;49.972;19.850;2022-12-16T00:45:46;98080;;;-2.1;89.3
51195;BME280;37259;49.972;19.850;2022-12-16T00:46:45;98080;;;-2.2;89.4
51195;BME280;37259;49.972;19.850;2022-12-16T00:47:47;98080;;;-2.2;89.5
51195;BME280;37259;49.972;19.850;2022-12-16T00:48:46;98080;;;-2.2;89.5
51195;BME280;37259;49.972;19.850;2022-12-16T00:49:45;98090;;;-2.2;89.5
51195;BME280;37259;49.972;19.850;2022-12-16T00:50:48;98090;;;-2.2;89.5
51195;BME280;37259;49.972;19.850;2022-12-16T00:51:46;98080;;;-2.1;89.6
51195;BME280;37259;49.972;19.850;2022-12-16T00:52:46;98080;;;-2.1;89.6
51195;BME280;37259;49.972;19.850;2022-12-16T00:53:46;98080;;;-2.1;89.6
51195;BME280;37259;49.972;19.850;2022-12-16T00:54:45;98080;;;-2.1;89.6
51195;BME280;37259;49.972;19.850;2022-12-16T00:55:45;98080;;;-2.1;89.6
51195;BME280;37259;49.972;19.850;2022-12-16T00:56:45;98080;;;-2.1;89.6
51195;BME280;37259;49.972;19.850;2022-12-16T00:57:45;98080;;;-2.1;89.6
51195;BME280;37259;49.972;19.850;2022-12-16T00:58:46;98080;;;-2.1;89.6
51195;BME280;37259;49.972;19.850;2022-12-16T00:59:46;98080;;;-2.1;89.6
51195;BME280;37259;49.972;19.850;2022-12-16T01:00:45;98070;;;-2;89.7
51195;BME280;37259;49.972;19.850;2022-12-16T01:01:46;98070;;;-2;89.7
51195;BME280;37259;49.972;19.850;2022-12-16T01:02:46;98060;;;-2.1;89.6
51195;BME280;37259;49.972;19.850;2022-12-16T01:03:45;98060;;;-2.1;89.7
51195;BME280;37259;49.972;19.850;2022-12-16T01:04:45;98060;;;-2.1;89.7
51195;BME280;37259;49.972;19.850;2022-12-16T01:05:46;98050;;;-2.1;89.7
51195;BME280;37259;49.972;19.850;2022-12-16T01:06:45;98050;;;-2;89.8
51195;BME280;37259;49.972;19.850;2022-12-16T01:07:46;98050;;;-2;89.8
51195;BME280;37259;49.972;19.850;2022-12-16T01:08:45;98050;;;-2;89.8
51195;BME280;37259;49.972;19.850;2022-12-16T01:09:45;98050;;;-2;89.8
51195;BME280;37259;49.972;19.850;2022-12-16T01:10:48;98050;;;-2.1;89.8
51195;BME280;37259;49.972;19.850;2022-12-16T01:11:46;98050;;;-2.1;89.8
51195;BME280;37259;49.972;19.850;2022-12-16T01:12:45;98050;;;-2.1;89.9
51195;BME280;37259;49.972;19.850;2022-12-16T01:13:48;98050;;;-2.1;89.9
51195;BME280;37259;49.972;19.850;2022-12-16T01:14:46;98040;;;-2.1;90
51195;BME280;37259;49.972;19.850;2022-12-16T01:15:46;98040;;;-2;90
51195;BME280;37259;49.972;19.850;2022-12-16T01:16:46;98040;;;-2;90
51195;BME280;37259;49.972;19.850;2022-12-16T01:17:45;98050;;;-2.1;90
51195;BME280;37259;49.972;19.850;2022-12-16T01:18:46;98050;;;-2;90
51195;BME280;37259;49.972;19.850;2022-12-16T01:19:46;98050;;;-2;90
51195;BME280;37259;49.972;19.850;2022-12-16T01:20:45;98050;;;-2;90
51195;BME280;37259;49.972;19.850;2022-12-16T01:21:46;98050;;;-2;90
51195;BME280;37259;49.972;19.850;2022-12-16T01:22:46;98040;;;-2;90
51195;BME280;37259;49.972;19.850;2022-12-16T01:23:46;98040;;;-2;90.1
51195;BME280;37259;49.972;19.850;2022-12-16T01:24:46;98040;;;-2;90.1
51195;BME280;37259;49.972;19.850;2022-12-16T01:25:47;98030;;;-2;90
51195;BME280;37259;49.972;19.850;2022-12-16T01:26:46;98030;;;-2;90.1
51195;BME280;37259;49.972;19.850;2022-12-16T01:27:46;98030;;;-2;90.1
51195;BME280;37259;49.972;19.850;2022-12-16T01:28:46;98030;;;-2;90.1
51195;BME280;37259;49.972;19.850;2022-12-16T01:29:45;98030;;;-1.9;90.1
51195;BME280;37259;49.972;19.850;2022-12-16T01:30:45;98030;;;-1.9;90.1
51195;BME280;37259;49.972;19.850;2022-12-16T01:31:45;98030;;;-1.9;90.1
51195;BME280;37259;49.972;19.850;2022-12-16T01:32:46;98030;;;-1.9;90.1
51195;BME280;37259;49.972;19.850;2022-12-16T01:33:46;98030;;;-1.9;90.1
51195;BME280;37259;49.972;19.850;2022-12-16T01:34:47;98020;;;-1.9;90.1
51195;BME280;37259;49.972;19.850;2022-12-16T01:35:45;98020;;;-1.9;90.1
51195;BME280;37259;49.972;19.850;2022-12-16T01:36:46;98020;;;-2;90.1
51195;BME280;37259;49.972;19.850;2022-12-16T01:37:46;98020;;;-2;90.1
51195;BME280;37259;49.972;19.850;2022-12-16T01:38:46;98010;;;-2;90.2
51195;BME280;37259;49.972;19.850;2022-12-16T01:39:46;98010;;;-1.9;90.2
51195;BME280;37259;49.972;19.850;2022-12-16T01:40:45;98010;;;-1.9;90.2
51195;BME280;37259;49.972;19.850;2022-12-16T01:41:46;98000;;;-2;90.2
51195;BME280;37259;49.972;19.850;2022-12-16T01:42:46;98000;;;-2;90.2
51195;BME280;37259;49.972;19.850;2022-12-16T01:43:46;98000;;;-1.9;90.3
51195;BME280;37259;49.972;19.850;2022-12-16T01:44:46;98000;;;-1.9;90.3
51195;BME280;37259;49.972;19.850;2022-12-16T01:45:46;98000;;;-2;90.3
51195;BME280;37259;49.972;19.850;2022-12-16T01:46:48;97990;;;-2;90.4
51195;BME280;37259;49.972;19.850;2022-12-16T01:47:46;97990;;;-2;90.4
51195;BME280;37259;49.972;19.850;2022-12-16T01:48:47;97980;;;-2;90.4
51195;BME280;37259;49.972;19.850;2022-12-16T01:49:46;97980;;;-2;90.4
51195;BME280;37259;49.972;19.850;2022-12-16T01:50:46;97980;;;-2;90.4
51195;BME280;37259;49.972;19.850;2022-12-16T01:51:45;97970;;;-2.1;90.7
51195;BME280;37259;49.972;19.850;2022-12-16T01:52:46;97980;;;-2.1;90.7
51195;BME280;37259;49.972;19.850;2022-12-16T01:53:46;97980;;;-2.1;90.7
51195;BME280;37259;49.972;19.850;2022-12-16T01:54:47;97980;;;-2;90.8
51195;BME280;37259;49.972;19.850;2022-12-16T01:55:47;97980;;;-2;90.8
51195;BME280;37259;49.972;19.850;2022-12-16T01:56:47;97980;;;-2;90.8
51195;BME280;37259;49.972;19.850;2022-12-16T01:57:46;97980;;;-2;90.8
51195;BME280;37259;49.972;19.850;2022-12-16T01:58:45;97980;;;-2;90.8
51195;BME280;37259;49.972;19.850;2022-12-16T01:59:46;97980;;;-2;90.8
51195;BME280;37259;49.972;19.850;2022-12-16T02:00:45;97980;;;-2;90.8
51195;BME280;37259;49.972;19.850;2022-12-16T02:01:46;97980;;;-2;90.8
51195;BME280;37259;49.972;19.850;2022-12-16T02:02:46;97980;;;-2;90.8
51195;BME280;37259;49.972;19.850;2022-12-16T02:03:45;97980;;;-2;90.9
51195;BME280;37259;49.972;19.850;2022-12-16T02:04:46;97980;;;-2;90.9
51195;BME280;37259;49.972;19.850;2022-12-16T02:05:46;97980;;;-2;90.9
51195;BME280;37259;49.972;19.850;2022-12-16T02:06:46;97980;;;-2;90.9
51195;BME280;37259;49.972;19.850;2022-12-16T02:07:50;97970;;;-2;90.9
51195;BME280;37259;49.972;19.850;2022-12-16T02:08:46;97970;;;-2;90.9
51195;BME280;37259;49.972;19.850;2022-12-16T02:09:45;97970;;;-2;90.9
51195;BME280;37259;49.972;19.850;2022-12-16T02:10:49;97970;;;-2;90.9
51195;BME280;37259;49.972;19.850;2022-12-16T02:11:53;97970;;;-2;91
51195;BME280;37259;49.972;19.850;2022-12-16T02:12:47;97970;;;-2.1;91
51195;BME280;37259;49.972;19.850;2022-12-16T02:13:51;97970;;;-2.1;91
51195;BME280;37259;49.972;19.850;2022-12-16T02:14:50;97970;;;-2.1;91.2
51195;BME280;37259;49.972;19.850;2022-12-16T02:15:47;97970;;;-2.1;91.2
51195;BME280;37259;49.972;19.850;2022-12-16T02:16:48;97970;;;-2.1;91.3
51195;BME280;37259;49.972;19.850;2022-12-16T02:17:47;97970;;;-2.1;91.3
51195;BME280;37259;49.972;19.850;2022-12-16T02:18:47;97970;;;-2.1;91.4
51195;BME280;37259;49.972;19.850;2022-12-16T02:19:53;97970;;;-2.1;91.4
51195;BME280;37259;49.972;19.850;2022-12-16T02:21:46;97970;;;-2.1;91.4
51195;BME280;37259;49.972;19.850;2022-12-16T02:21:51;97970;;;-2.1;91.4
51195;BME280;37259;49.972;19.850;2022-12-16T02:22:48;97970;;;-2.1;91.5
51195;BME280;37259;49.972;19.850;2022-12-16T02:23:53;97970;;;-2.1;91.5
51195;BME280;37259;49.972;19.850;2022-12-16T02:24:51;97970;;;-2;91.5
51195;BME280;37259;49.972;19.850;2022-12-16T02:25:51;97970;;;-2;91.5
51195;BME280;37259;49.972;19.850;2022-12-16T02:27:06;97970;;;-2.1;91.5
51195;BME280;37259;49.972;19.850;2022-12-16T02:27:49;97970;;;-2.1;91.5
51195;BME280;37259;49.972;19.850;2022-12-16T02:28:52;97970;;;-2;91.5
51195;BME280;37259;49.972;19.850;2022-12-16T02:30:46;97970;;;-2;91.5
51195;BME280;37259;49.972;19.850;2022-12-16T02:30:53;97970;;;-1.9;91.5
51195;BME280;37259;49.972;19.850;2022-12-16T02:31:46;97970;;;-2;91.4
51195;BME280;37259;49.972;19.850;2022-12-16T02:32:49;97970;;;-2;91.4
51195;BME280;37259;49.972;19.850;2022-12-16T02:33:49;97960;;;-2;91.5
51195;BME280;37259;49.972;19.850;2022-12-16T02:34:47;97960;;;-2;91.5
51195;BME280;37259;49.972;19.850;2022-12-16T02:35:47;97960;;;-1.9;91.4
51195;BME280;37259;49.972;19.850;2022-12-16T02:36:49;97960;;;-1.9;91.4
51195;BME280;37259;49.972;19.850;2022-12-16T02:37:46;97960;;;-1.9;91.4
51195;BME280;37259;49.972;19.850;2022-12-16T02:38:47;97960;;;-1.9;91.4
51195;BME280;37259;49.972;19.850;2022-12-16T02:39:47;97950;;;-1.9;91.3
51195;BME280;37259;49.972;19.850;2022-12-16T02:40:48;97950;;;-1.9;91.3
51195;BME280;37259;49.972;19.850;2022-12-16T02:41:46;97940;;;-1.9;91.3
51195;BME280;37259;49.972;19.850;2022-12-16T02:42:46;97940;;;-1.9;91.3
51195;BME280;37259;49.972;19.850;2022-12-16T02:43:50;97940;;;-1.9;91.3
51195;BME280;37259;49.972;19.850;2022-12-16T02:44:47;97930;;;-1.9;91.2
51195;BME280;37259;49.972;19.850;2022-12-16T02:45:46;97930;;;-1.9;91.2
51195;BME280;37259;49.972;19.850;2022-12-16T02:46:50;97920;;;-1.8;91.2
51195;BME280;37259;49.972;19.850;2022-12-16T02:47:46;97920;;;-1.8;91.2
51195;BME280;37259;49.972;19.850;2022-12-16T02:48:46;97910;;;-1.8;91.2
51195;BME280;37259;49.972;19.850;2022-12-16T02:49:48;97910;;;-1.8;91.2
51195;BME280;37259;49.972;19.850;2022-12-16T02:50:46;97910;;;-1.9;91.1
51195;BME280;37259;49.972;19.850;2022-12-16T02:51:46;97910;;;-1.9;91.1
51195;BME280;37259;49.972;19.850;2022-12-16T02:52:46;97910;;;-1.9;91
51195;BME280;37259;49.972;19.850;2022-12-16T02:53:46;97910;;;-1.9;91
51195;BME280;37259;49.972;19.850;2022-12-16T02:54:46;97910;;;-1.9;91
51195;BME280;37259;49.972;19.850;2022-12-16T02:55:49;97910;;;-1.9;91
51195;BME280;37259;49.972;19.850;2022-12-16T02:56:48;97910;;;-1.9;91
51195;BME280;37259;49.972;19.850;2022-12-16T02:57:49;97910;;;-1.8;91
51195;BME280;37259;49.972;19.850;2022-12-16T02:58:47;97910;;;-1.8;91
51195;BME280;37259;49.972;19.850;2022-12-16T02:59:47;97900;;;-1.8;91
51195;BME280;37259;49.972;19.850;2022-12-16T03:00:48;97900;;;-1.8;91
51195;BME280;37259;49.972;19.850;2022-12-16T03:01:46;97900;;;-1.9;90.9
51195;BME280;37259;49.972;19.850;2022-12-16T03:02:46;97900;;;-1.9;90.9
51195;BME280;37259;49.972;19.850;2022-12-16T03:03:46;97900;;;-1.9;90.9
51195;BME280;37259;49.972;19.850;2022-12-16T03:04:46;97900;;;-1.9;90.9
51195;BME280;37259;49.972;19.850;2022-12-16T03:05:46;97900;;;-1.9;90.9
51195;BME280;37259;49.972;19.850;2022-12-16T03:06:46;97900;;;-2;90.9
51195;BME280;37259;49.972;19.850;2022-12-16T03:07:46;97900;;;-2;90.9
51195;BME280;37259;49.972;19.850;2022-12-16T03:08:47;97900;;;-1.9;90.8
51195;BME280;37259;49.972;19.850;2022-12-16T03:09:46;97900;;;-2;90.8
51195;BME280;37259;49.972;19.850;2022-12-16T03:10:46;97900;;;-2;90.8
51195;BME280;37259;49.972;19.850;2022-12-16T03:11:46;97900;;;-2;90.8
51195;BME280;37259;49.972;19.850;2022-12-16T03:12:46;97900;;;-1.9;90.9
51195;BME280;37259;49.972;19.850;2022-12-16T03:13:46;97900;;;-1.9;90.9
51195;BME280;37259;49.972;19.850;2022-12-16T03:14:52;97910;;;-1.9;90.9
51195;BME280;37259;49.972;19.850;2022-12-16T03:15:46;97910;;;-1.9;90.9
51195;BME280;37259;49.972;19.850;2022-12-16T03:16:46;97910;;;-1.9;90.9
51195;BME280;37259;49.972;19.850;2022-12-16T03:17:46;97910;;;-1.9;90.9
51195;BME280;37259;49.972;19.850;2022-12-16T03:18:46;97910;;;-1.9;90.9
51195;BME280;37259;49.972;19.850;2022-12-16T03:19:47;97910;;;-1.9;90.9
51195;BME280;37259;49.972;19.850;2022-12-16T03:20:46;97900;;;-1.8;90.9
51195;BME280;37259;49.972;19.850;2022-12-16T03:21:47;97900;;;-1.8;90.9
51195;BME280;37259;49.972;19.850;2022-12-16T03:22:46;97900;;;-1.8;90.9
51195;BME280;37259;49.972;19.850;2022-12-16T03:23:47;97900;;;-1.9;90.8
51195;BME280;37259;49.972;19.850;2022-12-16T03:24:46;97900;;;-1.8;90.8
51195;BME280;37259;49.972;19.850;2022-12-16T03:25:46;97900;;;-1.8;90.8
51195;BME280;37259;49.972;19.850;2022-12-16T03:26:48;97890;;;-1.8;90.8
51195;BME280;37259;49.972;19.850;2022-12-16T03:27:47;97890;;;-1.8;90.8
51195;BME280;37259;49.972;19.850;2022-12-16T03:28:47;97890;;;-1.8;90.8
51195;BME280;37259;49.972;19.850;2022-12-16T03:29:49;97890;;;-1.8;90.8
51195;BME280;37259;49.972;19.850;2022-12-16T03:30:46;97880;;;-1.7;90.8
51195;BME280;37259;49.972;19.850;2022-12-16T03:31:46;97880;;;-1.7;90.8
51195;BME280;37259;49.972;19.850;2022-12-16T03:32:46;97880;;;-1.7;90.8
51195;BME280;37259;49.972;19.850;2022-12-16T03:33:47;97870;;;-1.7;90.8
51195;BME280;37259;49.972;19.850;2022-12-16T03:34:47;97870;;;-1.7;90.8
51195;BME280;37259;49.972;19.850;2022-12-16T03:35:46;97870;;;-1.7;90.8
51195;BME280;37259;49.972;19.850;2022-12-16T03:36:46;97860;;;-1.7;90.7
51195;BME280;37259;49.972;19.850;2022-12-16T03:37:46;97860;;;-1.7;90.6
51195;BME280;37259;49.972;19.850;2022-12-16T03:38:46;97850;;;-1.7;90.6
51195;BME280;37259;49.972;19.850;2022-12-16T03:39:46;97850;;;-1.7;90.6
51195;BME280;37259;49.972;19.850;2022-12-16T03:40:46;97850;;;-1.7;90.6
51195;BME280;37259;49.972;19.850;2022-12-16T03:41:46;97850;;;-1.7;90.5
51195;BME280;37259;49.972;19.850;2022-12-16T03:42:46;97850;;;-1.8;90.4
51195;BME280;37259;49.972;19.850;2022-12-16T03:43:46;97850;;;-1.7;90.5
51195;BME280;37259;49.972;19.850;2022-12-16T03:44:46;97850;;;-1.7;90.5
51195;BME280;37259;49.972;19.850;2022-12-16T03:45:46;97840;;;-1.7;90.5
51195;BME280;37259;49.972;19.850;2022-12-16T03:46:46;97840;;;-1.7;90.5
51195;BME280;37259;49.972;19.850;2022-12-16T03:47:47;97840;;;-1.7;90.5
51195;BME280;37259;49.972;19.850;2022-12-16T03:48:48;97840;;;-1.7;90.5
51195;BME280;37259;49.972;19.850;2022-12-16T03:49:46;97840;;;-1.7;90.5
51195;BME280;37259;49.972;19.850;2022-12-16T03:50:46;97830;;;-1.7;90.4
51195;BME280;37259;49.972;19.850;2022-12-16T03:51:46;97830;;;-1.7;90.4
51195;BME280;37259;49.972;19.850;2022-12-16T03:52:46;97830;;;-1.7;90.4
51195;BME280;37259;49.972;19.850;2022-12-16T03:53:46;97820;;;-1.7;90.3
51195;BME280;37259;49.972;19.850;2022-12-16T03:54:46;97810;;;-1.7;90.3
51195;BME280;37259;49.972;19.850;2022-12-16T03:55:46;97810;;;-1.7;90.3
51195;BME280;37259;49.972;19.850;2022-12-16T03:56:46;97810;;;-1.7;90.3
51195;BME280;37259;49.972;19.850;2022-12-16T03:57:46;97800;;;-1.7;90.3
51195;BME280;37259;49.972;19.850;2022-12-16T03:58:46;97800;;;-1.7;90.3
51195;BME280;37259;49.972;19.850;2022-12-16T03:59:46;97800;;;-1.6;90.4
51195;BME280;37259;49.972;19.850;2022-12-16T04:00:46;97810;;;-1.6;90.4
51195;BME280;37259;49.972;19.850;2022-12-16T04:01:46;97810;;;-1.6;90.4
51195;BME280;37259;49.972;19.850;2022-12-16T04:02:46;97810;;;-1.6;90.4
51195;BME280;37259;49.972;19.850;2022-12-16T04:03:46;97810;;;-1.6;90.4
51195;BME280;37259;49.972;19.850;2022-12-16T04:04:46;97810;;;-1.7;90.3
51195;BME280;37259;49.972;19.850;2022-12-16T04:05:46;97810;;;-1.7;90.3
51195;BME280;37259;49.972;19.850;2022-12-16T04:06:46;97800;;;-1.6;90.4
51195;BME280;37259;49.972;19.850;2022-12-16T04:07:46;97790;;;-1.6;90.4
51195;BME280;37259;49.972;19.850;2022-12-16T04:08:46;97790;;;-1.6;90.4
51195;BME280;37259;49.972;19.850;2022-12-16T04:09:46;97790;;;-1.6;90.3
51195;BME280;37259;49.972;19.850;2022-12-16T04:10:48;97790;;;-1.6;90.3
51195;BME280;37259;49.972;19.850;2022-12-16T04:11:46;97790;;;-1.6;90.3
51195;BME280;37259;49.972;19.850;2022-12-16T04:12:46;97790;;;-1.6;90.3
51195;BME280;37259;49.972;19.850;2022-12-16T04:13:46;97790;;;-1.5;90.3
51195;BME280;37259;49.972;19.850;2022-12-16T04:14:46;97790;;;-1.5;90.3
51195;BME280;37259;49.972;19.850;2022-12-16T04:15:46;97770;;;-1.5;90.2
51195;BME280;37259;49.972;19.850;2022-12-16T04:16:46;97770;;;-1.5;90.2
51195;BME280;37259;49.972;19.850;2022-12-16T04:17:46;97760;;;-1.5;90.2
51195;BME280;37259;49.972;19.850;2022-12-16T04:18:46;97760;;;-1.5;90.2
51195;BME280;37259;49.972;19.850;2022-12-16T04:19:46;97760;;;-1.5;90.2
51195;BME280;37259;49.972;19.850;2022-12-16T04:20:46;97760;;;-1.6;90.1
51195;BME280;37259;49.972;19.850;2022-12-16T04:21:46;97770;;;-1.6;90.1
51195;BME280;37259;49.972;19.850;2022-12-16T04:22:46;97770;;;-1.6;90.1
51195;BME280;37259;49.972;19.850;2022-12-16T04:23:46;97770;;;-1.6;90.1
51195;BME280;37259;49.972;19.850;2022-12-16T04:24:46;97760;;;-1.6;90.1
51195;BME280;37259;49.972;19.850;2022-12-16T04:25:46;97770;;;-1.7;90.2
51195;BME280;37259;49.972;19.850;2022-12-16T04:26:46;97770;;;-1.7;90.2
51195;BME280;37259;49.972;19.850;2022-12-16T04:27:46;97770;;;-1.7;90.3
51195;BME280;37259;49.972;19.850;2022-12-16T04:28:46;97770;;;-1.7;90.3
51195;BME280;37259;49.972;19.850;2022-12-16T04:29:46;97780;;;-1.7;90.3
51195;BME280;37259;49.972;19.850;2022-12-16T04:30:46;97780;;;-1.7;90.4
51195;BME280;37259;49.972;19.850;2022-12-16T04:31:46;97780;;;-1.7;90.4
51195;BME280;37259;49.972;19.850;2022-12-16T04:32:46;97780;;;-1.6;90.4
51195;BME280;37259;49.972;19.850;2022-12-16T04:33:46;97790;;;-1.7;90.4
51195;BME280;37259;49.972;19.850;2022-12-16T04:34:46;97780;;;-1.7;90.4
51195;BME280;37259;49.972;19.850;2022-12-16T04:35:46;97780;;;-1.7;90.4
51195;BME280;37259;49.972;19.850;2022-12-16T04:36:46;97780;;;-1.7;90.5
51195;BME280;37259;49.972;19.850;2022-12-16T04:37:46;97780;;;-1.7;90.5
51195;BME280;37259;49.972;19.850;2022-12-16T04:38:46;97780;;;-1.7;90.5
51195;BME280;37259;49.972;19.850;2022-12-16T04:39:46;97780;;;-1.7;90.4
51195;BME280;37259;49.972;19.850;2022-12-16T04:40:46;97780;;;-1.7;90.4
51195;BME280;37259;49.972;19.850;2022-12-16T04:41:46;97780;;;-1.7;90.5
51195;BME280;37259;49.972;19.850;2022-12-16T04:42:46;97780;;;-1.7;90.5
51195;BME280;37259;49.972;19.850;2022-12-16T04:43:46;97780;;;-1.8;90.6
51195;BME280;37259;49.972;19.850;2022-12-16T04:44:46;97780;;;-1.8;90.8
51195;BME280;37259;49.972;19.850;2022-12-16T04:45:46;97780;;;-1.8;90.8
51195;BME280;37259;49.972;19.850;2022-12-16T04:46:46;97780;;;-1.8;90.8
51195;BME280;37259;49.972;19.850;2022-12-16T04:47:46;97780;;;-1.8;90.8
51195;BME280;37259;49.972;19.850;2022-12-16T04:48:46;97780;;;-1.7;90.9
51195;BME280;37259;49.972;19.850;2022-12-16T04:49:46;97770;;;-1.7;90.9
51195;BME280;37259;49.972;19.850;2022-12-16T04:50:46;97780;;;-1.6;90.9
51195;BME280;37259;49.972;19.850;2022-12-16T04:51:46;97780;;;-1.6;90.9
51195;BME280;37259;49.972;19.850;2022-12-16T04:52:48;97780;;;-1.6;90.9
51195;BME280;37259;49.972;19.850;2022-12-16T04:53:46;97780;;;-1.6;90.9
51195;BME280;37259;49.972;19.850;2022-12-16T04:54:46;97780;;;-1.7;91
51195;BME280;37259;49.972;19.850;2022-12-16T04:55:46;97790;;;-1.7;91.1
51195;BME280;37259;49.972;19.850;2022-12-16T04:56:46;97790;;;-1.7;91.1
51195;BME280;37259;49.972;19.850;2022-12-16T04:57:47;97790;;;-1.6;91.1
51195;BME280;37259;49.972;19.850;2022-12-16T04:58:46;97790;;;-1.6;91.2
51195;BME280;37259;49.972;19.850;2022-12-16T04:59:46;97790;;;-1.6;91.2
51195;BME280;37259;49.972;19.850;2022-12-16T05:00:46;97790;;;-1.6;91.2
51195;BME280;37259;49.972;19.850;2022-12-16T05:01:46;97790;;;-1.6;91.2
51195;BME280;37259;49.972;19.850;2022-12-16T05:02:47;97790;;;-1.6;91.2
51195;BME280;37259;49.972;19.850;2022-12-16T05:03:46;97780;;;-1.6;91.3
51195;BME280;37259;49.972;19.850;2022-12-16T05:04:46;97770;;;-1.6;91.3
51195;BME280;37259;49.972;19.850;2022-12-16T05:05:46;97770;;;-1.5;91.3
51195;BME280;37259;49.972;19.850;2022-12-16T05:06:46;97770;;;-1.6;91.3
51195;BME280;37259;49.972;19.850;2022-12-16T05:07:46;97770;;;-1.6;91.3
51195;BME280;37259;49.972;19.850;2022-12-16T05:08:46;97770;;;-1.5;91.3
51195;BME280;37259;49.972;19.850;2022-12-16T05:09:46;97770;;;-1.5;91.3
51195;BME280;37259;49.972;19.850;2022-12-16T05:10:46;97770;;;-1.5;91.4
51195;BME280;37259;49.972;19.850;2022-12-16T05:11:46;97770;;;-1.5;91.4
51195;BME280;37259;49.972;19.850;2022-12-16T05:12:46;97770;;;-1.5;91.4
51195;BME280;37259;49.972;19.850;2022-12-16T05:13:46;97760;;;-1.4;91.5
51195;BME280;37259;49.972;19.850;2022-12-16T05:14:46;97760;;;-1.4;91.5
51195;BME280;37259;49.972;19.850;2022-12-16T05:15:46;97760;;;-1.4;91.5
51195;BME280;37259;49.972;19.850;2022-12-16T05:16:46;97760;;;-1.4;91.5
51195;BME280;37259;49.972;19.850;2022-12-16T05:17:46;97750;;;-1.4;91.5
51195;BME280;37259;49.972;19.850;2022-12-16T05:18:46;97750;;;-1.4;91.5
51195;BME280;37259;49.972;19.850;2022-12-16T05:19:46;97750;;;-1.4;91.4
51195;BME280;37259;49.972;19.850;2022-12-16T05:20:46;97740;;;-1.4;91.3
51195;BME280;37259;49.972;19.850;2022-12-16T05:21:46;97740;;;-1.4;91.3
51195;BME280;37259;49.972;19.850;2022-12-16T05:22:46;97730;;;-1.3;91.4
51195;BME280;37259;49.972;19.850;2022-12-16T05:23:46;97730;;;-1.3;91.4
51195;BME280;37259;49.972;19.850;2022-12-16T05:24:46;97730;;;-1.3;91.4
51195;BME280;37259;49.972;19.850;2022-12-16T05:25:46;97730;;;-1.2;91.4
51195;BME280;37259;49.972;19.850;2022-12-16T05:26:46;97730;;;-1.2;91.4
51195;BME280;37259;49.972;19.850;2022-12-16T05:27:49;97720;;;-1.2;91.3
51195;BME280;37259;49.972;19.850;2022-12-16T05:28:46;97730;;;-1.2;91.3
51195;BME280;37259;49.972;19.850;2022-12-16T05:29:46;97730;;;-1.2;91.3
51195;BME280;37259;49.972;19.850;2022-12-16T05:30:46;97720;;;-1.3;91.4
51195;BME280;37259;49.972;19.850;2022-12-16T05:31:46;97720;;;-1.3;91.4
51195;BME280;37259;49.972;19.850;2022-12-16T05:32:47;97720;;;-1.3;91.4
51195;BME280;37259;49.972;19.850;2022-12-16T05:33:46;97720;;;-1.3;91.4
51195;BME280;37259;49.972;19.850;2022-12-16T05:34:46;97720;;;-1.3;91.4
51195;BME280;37259;49.972;19.850;2022-12-16T05:35:46;97710;;;-1.2;91.4
51195;BME280;37259;49.972;19.850;2022-12-16T05:36:46;97710;;;-1.2;91.5
51195;BME280;37259;49.972;19.850;2022-12-16T05:37:46;97710;;;-1.2;91.5
51195;BME280;37259;49.972;19.850;2022-12-16T05:38:46;97720;;;-1.2;91.4